sensor_id;sensor_type;location;lat;lon;timestamp;temperature;humidity
21676;DHT22;10999;51.332;9.458;2024-02-14T00:00:13;5.60;87.20
21676;DHT22;10999;51.332;9.458;2024-02-14T00:02:46;5.60;87.40
21676;DHT22;10999;51.332;9.458;2024-02-14T00:05:16;5.60;87.20
21676;DHT22;10999;51.332;9.458;2024-02-14T00:07:44;5.60;87.60
21676;DHT22;10999;51.332;9.458;2024-02-14T00:10:11;5.60;87.50
21676;DHT22;10999;51.332;9.458;2024-02-14T00:12:38;5.60;87.30
21676;DHT22;10999;51.332;9.458;2024-02-14T00:15:05;5.60;87.50
21676;DHT22;10999;51.332;9.458;2024-02-14T00:17:34;5.60;87.40
21676;DHT22;10999;51.332;9.458;2024-02-14T00:20:02;5.60;87.30
21676;DHT22;10999;51.332;9.458;2024-02-14T00:22:30;5.70;87.60
21676;DHT22;10999;51.332;9.458;2024-02-14T00:24:57;5.60;88.10
21676;DHT22;10999;51.332;9.458;2024-02-14T00:27:24;5.60;88.10
21676;DHT22;10999;51.332;9.458;2024-02-14T00:29:53;5.60;88.20
21676;DHT22;10999;51.332;9.458;2024-02-14T00:32:21;5.60;88.20
21676;DHT22;10999;51.332;9.458;2024-02-14T00:34:48;5.70;88.20
21676;DHT22;10999;51.332;9.458;2024-02-14T00:37:16;5.70;87.60
21676;DHT22;10999;51.332;9.458;2024-02-14T00:39:43;5.70;87.70
21676;DHT22;10999;51.332;9.458;2024-02-14T00:42:10;5.70;88.00
21676;DHT22;10999;51.332;9.458;2024-02-14T00:44:37;5.70;87.80
21676;DHT22;10999;51.332;9.458;2024-02-14T00:47:04;5.70;87.80
21676;DHT22;10999;51.332;9.458;2024-02-14T00:49:34;5.70;87.50
21676;DHT22;10999;51.332;9.458;2024-02-14T00:52:01;5.80;87.10
21676;DHT22;10999;51.332;9.458;2024-02-14T00:54:28;5.80;87.00
21676;DHT22;10999;51.332;9.458;2024-02-14T00:56:55;5.80;86.40
21676;DHT22;10999;51.332;9.458;2024-02-14T00:59:22;5.90;86.40
21676;DHT22;10999;51.332;9.458;2024-02-14T01:01:49;5.80;86.10
21676;DHT22;10999;51.332;9.458;2024-02-14T01:04:16;5.90;85.10
21676;DHT22;10999;51.332;9.458;2024-02-14T01:06:43;5.90;85.20
21676;DHT22;10999;51.332;9.458;2024-02-14T01:09:10;5.90;85.20
21676;DHT22;10999;51.332;9.458;2024-02-14T01:11:37;6.00;84.50
21676;DHT22;10999;51.332;9.458;2024-02-14T01:14:05;6.00;83.90
21676;DHT22;10999;51.332;9.458;2024-02-14T01:16:32;6.00;83.70
21676;DHT22;10999;51.332;9.458;2024-02-14T01:18:59;6.00;84.40
21676;DHT22;10999;51.332;9.458;2024-02-14T01:21:26;6.00;83.00
21676;DHT22;10999;51.332;9.458;2024-02-14T01:23:53;6.10;82.70
21676;DHT22;10999;51.332;9.458;2024-02-14T01:26:19;6.10;82.00
21676;DHT22;10999;51.332;9.458;2024-02-14T01:28:47;6.10;81.80
21676;DHT22;10999;51.332;9.458;2024-02-14T01:31:15;6.20;80.80
21676;DHT22;10999;51.332;9.458;2024-02-14T01:33:42;6.20;80.60
21676;DHT22;10999;51.332;9.458;2024-02-14T01:36:09;6.20;80.90
21676;DHT22;10999;51.332;9.458;2024-02-14T01:38:35;6.20;80.60
21676;DHT22;10999;51.332;9.458;2024-02-14T01:41:03;6.20;81.00
21676;DHT22;10999;51.332;9.458;2024-02-14T01:43:30;6.30;80.20
21676;DHT22;10999;51.332;9.458;2024-02-14T01:46:05;6.20;79.60
21676;DHT22;10999;51.332;9.458;2024-02-14T01:48:36;6.20;79.80
21676;DHT22;10999;51.332;9.458;2024-02-14T01:51:08;6.30;79.40
21676;DHT22;10999;51.332;9.458;2024-02-14T01:53:37;6.30;78.30
21676;DHT22;10999;51.332;9.458;2024-02-14T01:56:05;6.30;78.60
21676;DHT22;10999;51.332;9.458;2024-02-14T01:58:34;6.30;78.60
21676;DHT22;10999;51.332;9.458;2024-02-14T02:01:01;6.30;78.70
21676;DHT22;10999;51.332;9.458;2024-02-14T02:03:29;6.40;78.30
21676;DHT22;10999;51.332;9.458;2024-02-14T02:24:52;6.30;80.00
21676;DHT22;10999;51.332;9.458;2024-02-14T02:27:19;6.30;80.40
21676;DHT22;10999;51.332;9.458;2024-02-14T02:29:46;6.30;79.90
21676;DHT22;10999;51.332;9.458;2024-02-14T02:32:13;6.40;78.80
21676;DHT22;10999;51.332;9.458;2024-02-14T02:34:42;6.50;77.80
21676;DHT22;10999;51.332;9.458;2024-02-14T02:37:12;6.50;77.60
21676;DHT22;10999;51.332;9.458;2024-02-14T02:39:39;6.60;77.30
21676;DHT22;10999;51.332;9.458;2024-02-14T02:42:06;6.60;78.30
21676;DHT22;10999;51.332;9.458;2024-02-14T02:44:33;6.50;77.60
21676;DHT22;10999;51.332;9.458;2024-02-14T02:46:59;6.60;77.60
21676;DHT22;10999;51.332;9.458;2024-02-14T02:49:27;6.60;77.40
21676;DHT22;10999;51.332;9.458;2024-02-14T02:51:55;6.60;77.80
21676;DHT22;10999;51.332;9.458;2024-02-14T02:54:22;6.60;77.80
21676;DHT22;10999;51.332;9.458;2024-02-14T02:56:50;6.60;78.20
21676;DHT22;10999;51.332;9.458;2024-02-14T02:59:16;6.60;77.50
21676;DHT22;10999;51.332;9.458;2024-02-14T03:01:43;6.70;76.60
21676;DHT22;10999;51.332;9.458;2024-02-14T03:04:11;6.60;76.80
21676;DHT22;10999;51.332;9.458;2024-02-14T03:06:40;6.70;77.40
21676;DHT22;10999;51.332;9.458;2024-02-14T03:09:07;6.70;77.20
21676;DHT22;10999;51.332;9.458;2024-02-14T03:11:34;6.70;76.40
21676;DHT22;10999;51.332;9.458;2024-02-14T03:14:04;6.70;76.60
21676;DHT22;10999;51.332;9.458;2024-02-14T03:16:30;6.70;76.50
21676;DHT22;10999;51.332;9.458;2024-02-14T03:18:57;6.70;76.30
21676;DHT22;10999;51.332;9.458;2024-02-14T03:21:25;6.70;76.50
21676;DHT22;10999;51.332;9.458;2024-02-14T03:23:52;6.70;76.60
21676;DHT22;10999;51.332;9.458;2024-02-14T03:26:20;6.70;76.50
21676;DHT22;10999;51.332;9.458;2024-02-14T03:28:47;6.70;76.20
21676;DHT22;10999;51.332;9.458;2024-02-14T03:31:15;6.70;76.50
21676;DHT22;10999;51.332;9.458;2024-02-14T03:33:42;6.70;77.00
21676;DHT22;10999;51.332;9.458;2024-02-14T03:36:10;6.70;77.30
21676;DHT22;10999;51.332;9.458;2024-02-14T03:38:37;6.70;76.60
21676;DHT22;10999;51.332;9.458;2024-02-14T03:41:06;6.70;76.80
21676;DHT22;10999;51.332;9.458;2024-02-14T03:43:33;6.70;76.20
21676;DHT22;10999;51.332;9.458;2024-02-14T03:46:00;6.70;76.70
21676;DHT22;10999;51.332;9.458;2024-02-14T03:56:24;6.70;76.60
21676;DHT22;10999;51.332;9.458;2024-02-14T03:58:52;6.70;76.90
21676;DHT22;10999;51.332;9.458;2024-02-14T04:01:19;6.70;77.00
21676;DHT22;10999;51.332;9.458;2024-02-14T04:03:46;6.70;77.20
21676;DHT22;10999;51.332;9.458;2024-02-14T04:06:14;6.70;77.10
21676;DHT22;10999;51.332;9.458;2024-02-14T04:08:41;6.70;77.50
21676;DHT22;10999;51.332;9.458;2024-02-14T04:11:08;6.70;77.70
21676;DHT22;10999;51.332;9.458;2024-02-14T04:13:35;6.70;77.60
21676;DHT22;10999;51.332;9.458;2024-02-14T04:16:02;6.70;78.20
21676;DHT22;10999;51.332;9.458;2024-02-14T04:18:29;6.70;78.60
21676;DHT22;10999;51.332;9.458;2024-02-14T04:20:56;6.70;78.30
21676;DHT22;10999;51.332;9.458;2024-02-14T04:23:23;6.70;78.80
21676;DHT22;10999;51.332;9.458;2024-02-14T04:25:51;6.70;78.30
21676;DHT22;10999;51.332;9.458;2024-02-14T04:28:18;6.70;78.60
21676;DHT22;10999;51.332;9.458;2024-02-14T04:30:44;6.70;78.50
21676;DHT22;10999;51.332;9.458;2024-02-14T04:33:12;6.80;78.30
21676;DHT22;10999;51.332;9.458;2024-02-14T04:35:40;6.80;78.80
21676;DHT22;10999;51.332;9.458;2024-02-14T04:38:07;6.70;79.30
21676;DHT22;10999;51.332;9.458;2024-02-14T04:40:35;6.70;79.90
21676;DHT22;10999;51.332;9.458;2024-02-14T04:43:02;6.70;80.40
21676;DHT22;10999;51.332;9.458;2024-02-14T04:45:29;6.70;80.30
21676;DHT22;10999;51.332;9.458;2024-02-14T04:47:56;6.70;80.60
21676;DHT22;10999;51.332;9.458;2024-02-14T04:50:23;6.70;80.40
21676;DHT22;10999;51.332;9.458;2024-02-14T04:52:50;6.60;80.70
21676;DHT22;10999;51.332;9.458;2024-02-14T04:55:16;6.60;80.80
21676;DHT22;10999;51.332;9.458;2024-02-14T04:57:43;6.70;81.20
21676;DHT22;10999;51.332;9.458;2024-02-14T05:00:10;6.70;81.30
21676;DHT22;10999;51.332;9.458;2024-02-14T05:02:37;6.70;81.00
21676;DHT22;10999;51.332;9.458;2024-02-14T05:05:05;6.70;80.90
21676;DHT22;10999;51.332;9.458;2024-02-14T05:07:32;6.70;80.60
21676;DHT22;10999;51.332;9.458;2024-02-14T05:10:00;6.70;81.20
21676;DHT22;10999;51.332;9.458;2024-02-14T05:12:27;6.70;80.60
21676;DHT22;10999;51.332;9.458;2024-02-14T05:14:54;6.70;81.00
21676;DHT22;10999;51.332;9.458;2024-02-14T05:17:21;6.70;80.60
21676;DHT22;10999;51.332;9.458;2024-02-14T05:19:47;6.70;80.50
21676;DHT22;10999;51.332;9.458;2024-02-14T05:22:15;6.70;80.90
21676;DHT22;10999;51.332;9.458;2024-02-14T05:24:41;6.70;80.70
21676;DHT22;10999;51.332;9.458;2024-02-14T05:27:08;6.70;80.90
21676;DHT22;10999;51.332;9.458;2024-02-14T05:29:35;6.70;81.00
21676;DHT22;10999;51.332;9.458;2024-02-14T05:32:02;6.70;81.30
21676;DHT22;10999;51.332;9.458;2024-02-14T05:34:29;6.70;81.60
21676;DHT22;10999;51.332;9.458;2024-02-14T05:36:56;6.70;81.70
21676;DHT22;10999;51.332;9.458;2024-02-14T05:39:23;6.70;82.30
21676;DHT22;10999;51.332;9.458;2024-02-14T05:41:49;6.70;82.20
21676;DHT22;10999;51.332;9.458;2024-02-14T05:44:16;6.70;82.40
21676;DHT22;10999;51.332;9.458;2024-02-14T05:46:43;6.70;82.50
21676;DHT22;10999;51.332;9.458;2024-02-14T05:49:10;6.70;82.80
21676;DHT22;10999;51.332;9.458;2024-02-14T05:51:37;6.70;82.90
21676;DHT22;10999;51.332;9.458;2024-02-14T05:54:04;6.70;83.10
21676;DHT22;10999;51.332;9.458;2024-02-14T05:56:30;6.70;83.30
21676;DHT22;10999;51.332;9.458;2024-02-14T05:58:57;6.70;83.10
21676;DHT22;10999;51.332;9.458;2024-02-14T06:01:24;6.80;83.00
21676;DHT22;10999;51.332;9.458;2024-02-14T06:03:51;6.80;83.00
21676;DHT22;10999;51.332;9.458;2024-02-14T06:06:17;6.80;83.10
21676;DHT22;10999;51.332;9.458;2024-02-14T06:08:44;6.80;83.10
21676;DHT22;10999;51.332;9.458;2024-02-14T06:11:11;6.80;83.10
21676;DHT22;10999;51.332;9.458;2024-02-14T06:13:40;6.80;83.20
21676;DHT22;10999;51.332;9.458;2024-02-14T06:16:09;6.80;83.20
21676;DHT22;10999;51.332;9.458;2024-02-14T06:18:38;6.80;83.40
21676;DHT22;10999;51.332;9.458;2024-02-14T06:21:07;6.80;83.60
21676;DHT22;10999;51.332;9.458;2024-02-14T06:23:34;6.70;83.60
21676;DHT22;10999;51.332;9.458;2024-02-14T06:26:01;6.80;83.80
21676;DHT22;10999;51.332;9.458;2024-02-14T06:28:28;6.80;84.10
21676;DHT22;10999;51.332;9.458;2024-02-14T06:30:54;6.70;84.10
21676;DHT22;10999;51.332;9.458;2024-02-14T06:33:21;6.80;84.20
21676;DHT22;10999;51.332;9.458;2024-02-14T06:35:48;6.80;84.50
21676;DHT22;10999;51.332;9.458;2024-02-14T06:38:15;6.80;84.60
21676;DHT22;10999;51.332;9.458;2024-02-14T06:40:42;6.80;84.70
21676;DHT22;10999;51.332;9.458;2024-02-14T06:43:10;6.80;85.10
21676;DHT22;10999;51.332;9.458;2024-02-14T06:45:38;6.80;85.30
21676;DHT22;10999;51.332;9.458;2024-02-14T06:48:07;6.70;85.40
21676;DHT22;10999;51.332;9.458;2024-02-14T06:50:35;6.80;85.40
21676;DHT22;10999;51.332;9.458;2024-02-14T06:53:01;6.80;85.20
21676;DHT22;10999;51.332;9.458;2024-02-14T06:55:28;6.80;85.50
21676;DHT22;10999;51.332;9.458;2024-02-14T06:57:59;6.80;85.60
21676;DHT22;10999;51.332;9.458;2024-02-14T07:00:26;6.80;85.70
21676;DHT22;10999;51.332;9.458;2024-02-14T07:02:55;6.90;85.80
21676;DHT22;10999;51.332;9.458;2024-02-14T07:05:22;6.90;86.00
21676;DHT22;10999;51.332;9.458;2024-02-14T07:07:49;6.80;86.10
21676;DHT22;10999;51.332;9.458;2024-02-14T07:10:16;6.80;86.10
21676;DHT22;10999;51.332;9.458;2024-02-14T07:12:43;6.90;86.40
21676;DHT22;10999;51.332;9.458;2024-02-14T07:15:10;6.90;86.80
21676;DHT22;10999;51.332;9.458;2024-02-14T07:17:38;6.90;86.80
21676;DHT22;10999;51.332;9.458;2024-02-14T07:20:07;6.90;86.90
21676;DHT22;10999;51.332;9.458;2024-02-14T07:22:37;6.90;86.90
21676;DHT22;10999;51.332;9.458;2024-02-14T07:25:04;6.90;86.90
21676;DHT22;10999;51.332;9.458;2024-02-14T07:27:31;6.90;87.40
21676;DHT22;10999;51.332;9.458;2024-02-14T07:29:58;6.90;87.30
21676;DHT22;10999;51.332;9.458;2024-02-14T07:32:25;6.90;87.80
21676;DHT22;10999;51.332;9.458;2024-02-14T07:34:54;6.90;87.90
21676;DHT22;10999;51.332;9.458;2024-02-14T07:37:21;6.90;88.10
21676;DHT22;10999;51.332;9.458;2024-02-14T07:39:48;7.00;88.10
21676;DHT22;10999;51.332;9.458;2024-02-14T07:42:15;7.00;88.20
21676;DHT22;10999;51.332;9.458;2024-02-14T07:44:42;7.10;88.50
21676;DHT22;10999;51.332;9.458;2024-02-14T07:47:09;7.10;88.50
21676;DHT22;10999;51.332;9.458;2024-02-14T07:49:36;7.10;88.40
21676;DHT22;10999;51.332;9.458;2024-02-14T07:52:03;7.20;88.40
21676;DHT22;10999;51.332;9.458;2024-02-14T07:54:30;7.20;88.50
21676;DHT22;10999;51.332;9.458;2024-02-14T07:56:57;7.20;88.50
21676;DHT22;10999;51.332;9.458;2024-02-14T07:59:24;7.20;88.40
21676;DHT22;10999;51.332;9.458;2024-02-14T08:01:51;7.20;88.50
21676;DHT22;10999;51.332;9.458;2024-02-14T08:04:17;7.30;88.40
21676;DHT22;10999;51.332;9.458;2024-02-14T08:06:45;7.30;88.50
21676;DHT22;10999;51.332;9.458;2024-02-14T08:09:12;7.20;88.60
21676;DHT22;10999;51.332;9.458;2024-02-14T08:11:39;7.30;89.10
21676;DHT22;10999;51.332;9.458;2024-02-14T08:14:06;7.30;89.60
21676;DHT22;10999;51.332;9.458;2024-02-14T08:16:33;7.40;89.50
21676;DHT22;10999;51.332;9.458;2024-02-14T08:19:00;7.40;89.40
21676;DHT22;10999;51.332;9.458;2024-02-14T08:21:28;7.40;89.60
21676;DHT22;10999;51.332;9.458;2024-02-14T08:23:58;7.40;89.10
21676;DHT22;10999;51.332;9.458;2024-02-14T08:26:27;7.50;89.50
21676;DHT22;10999;51.332;9.458;2024-02-14T08:28:54;7.60;89.40
21676;DHT22;10999;51.332;9.458;2024-02-14T08:31:20;7.60;89.40
21676;DHT22;10999;51.332;9.458;2024-02-14T08:33:47;7.60;89.40
21676;DHT22;10999;51.332;9.458;2024-02-14T08:36:14;7.60;89.30
21676;DHT22;10999;51.332;9.458;2024-02-14T08:38:43;7.60;89.40
21676;DHT22;10999;51.332;9.458;2024-02-14T08:41:10;7.60;89.70
21676;DHT22;10999;51.332;9.458;2024-02-14T08:43:37;7.60;90.10
21676;DHT22;10999;51.332;9.458;2024-02-14T08:46:11;7.60;90.50
21676;DHT22;10999;51.332;9.458;2024-02-14T08:48:38;7.60;91.00
21676;DHT22;10999;51.332;9.458;2024-02-14T08:51:13;7.70;91.30
21676;DHT22;10999;51.332;9.458;2024-02-14T08:53:40;7.70;90.90
21676;DHT22;10999;51.332;9.458;2024-02-14T08:56:09;7.80;90.60
21676;DHT22;10999;51.332;9.458;2024-02-14T08:58:35;7.80;90.80
21676;DHT22;10999;51.332;9.458;2024-02-14T09:01:02;7.90;91.00
21676;DHT22;10999;51.332;9.458;2024-02-14T09:03:40;7.90;90.50
21676;DHT22;10999;51.332;9.458;2024-02-14T09:06:10;7.90;90.70
21676;DHT22;10999;51.332;9.458;2024-02-14T09:08:37;7.90;90.70
21676;DHT22;10999;51.332;9.458;2024-02-14T09:11:04;7.90;90.90
21676;DHT22;10999;51.332;9.458;2024-02-14T09:13:30;7.90;91.40
21676;DHT22;10999;51.332;9.458;2024-02-14T09:15:57;7.90;91.60
21676;DHT22;10999;51.332;9.458;2024-02-14T09:18:24;7.80;91.70
21676;DHT22;10999;51.332;9.458;2024-02-14T09:20:52;7.90;92.10
21676;DHT22;10999;51.332;9.458;2024-02-14T09:23:19;7.90;92.50
21676;DHT22;10999;51.332;9.458;2024-02-14T09:25:47;7.90;92.40
21676;DHT22;10999;51.332;9.458;2024-02-14T09:28:15;7.90;92.50
21676;DHT22;10999;51.332;9.458;2024-02-14T09:30:42;8.00;92.80
21676;DHT22;10999;51.332;9.458;2024-02-14T09:33:09;8.00;92.60
21676;DHT22;10999;51.332;9.458;2024-02-14T09:35:37;8.00;92.20
21676;DHT22;10999;51.332;9.458;2024-02-14T09:38:05;8.10;92.70
21676;DHT22;10999;51.332;9.458;2024-02-14T09:40:32;8.10;92.10
21676;DHT22;10999;51.332;9.458;2024-02-14T09:43:03;8.30;92.10
21676;DHT22;10999;51.332;9.458;2024-02-14T09:45:31;8.20;91.40
21676;DHT22;10999;51.332;9.458;2024-02-14T09:48:00;8.20;91.40
21676;DHT22;10999;51.332;9.458;2024-02-14T09:50:29;8.20;91.20
21676;DHT22;10999;51.332;9.458;2024-02-14T09:52:58;8.20;91.60
21676;DHT22;10999;51.332;9.458;2024-02-14T09:55:25;8.20;91.80
21676;DHT22;10999;51.332;9.458;2024-02-14T09:57:54;8.30;92.00
21676;DHT22;10999;51.332;9.458;2024-02-14T10:00:22;8.20;92.00
21676;DHT22;10999;51.332;9.458;2024-02-14T10:02:50;8.30;92.70
21676;DHT22;10999;51.332;9.458;2024-02-14T10:05:16;8.30;93.20
21676;DHT22;10999;51.332;9.458;2024-02-14T10:07:44;8.30;93.10
21676;DHT22;10999;51.332;9.458;2024-02-14T10:10:11;8.30;93.10
21676;DHT22;10999;51.332;9.458;2024-02-14T10:12:38;8.30;93.30
21676;DHT22;10999;51.332;9.458;2024-02-14T10:15:08;8.30;93.00
21676;DHT22;10999;51.332;9.458;2024-02-14T10:17:35;8.20;93.00
21676;DHT22;10999;51.332;9.458;2024-02-14T10:20:03;8.20;93.40
21676;DHT22;10999;51.332;9.458;2024-02-14T10:22:36;8.20;93.90
21676;DHT22;10999;51.332;9.458;2024-02-14T10:25:04;8.20;94.10
21676;DHT22;10999;51.332;9.458;2024-02-14T10:27:36;8.20;94.30
21676;DHT22;10999;51.332;9.458;2024-02-14T10:30:05;8.20;94.70
21676;DHT22;10999;51.332;9.458;2024-02-14T10:32:37;8.30;95.00
21676;DHT22;10999;51.332;9.458;2024-02-14T10:35:05;8.30;94.70
21676;DHT22;10999;51.332;9.458;2024-02-14T10:37:35;8.40;94.70
21676;DHT22;10999;51.332;9.458;2024-02-14T10:40:03;8.40;94.20
21676;DHT22;10999;51.332;9.458;2024-02-14T10:42:31;8.40;93.90
21676;DHT22;10999;51.332;9.458;2024-02-14T10:45:01;8.50;94.20
21676;DHT22;10999;51.332;9.458;2024-02-14T10:47:34;8.40;93.70
21676;DHT22;10999;51.332;9.458;2024-02-14T10:50:04;8.50;93.70
21676;DHT22;10999;51.332;9.458;2024-02-14T10:52:36;8.50;93.50
21676;DHT22;10999;51.332;9.458;2024-02-14T10:55:06;8.50;93.90
21676;DHT22;10999;51.332;9.458;2024-02-14T10:57:33;8.60;94.20
21676;DHT22;10999;51.332;9.458;2024-02-14T11:00:07;8.60;93.80
21676;DHT22;10999;51.332;9.458;2024-02-14T11:02:40;8.60;92.90
21676;DHT22;10999;51.332;9.458;2024-02-14T11:05:14;8.60;93.10
21676;DHT22;10999;51.332;9.458;2024-02-14T11:07:47;8.60;93.30
21676;DHT22;10999;51.332;9.458;2024-02-14T11:10:16;8.60;92.80
21676;DHT22;10999;51.332;9.458;2024-02-14T11:12:47;8.60;93.10
21676;DHT22;10999;51.332;9.458;2024-02-14T11:15:18;8.70;93.30
21676;DHT22;10999;51.332;9.458;2024-02-14T11:17:46;8.70;92.50
21676;DHT22;10999;51.332;9.458;2024-02-14T11:20:17;8.60;92.40
21676;DHT22;10999;51.332;9.458;2024-02-14T11:25:27;8.70;92.40
21676;DHT22;10999;51.332;9.458;2024-02-14T11:27:54;8.70;92.20
21676;DHT22;10999;51.332;9.458;2024-02-14T11:30:33;8.80;91.90
21676;DHT22;10999;51.332;9.458;2024-02-14T11:33:17;8.80;91.80
21676;DHT22;10999;51.332;9.458;2024-02-14T11:35:52;8.90;91.30
21676;DHT22;10999;51.332;9.458;2024-02-14T11:38:23;9.00;90.90
21676;DHT22;10999;51.332;9.458;2024-02-14T11:40:54;9.10;90.10
21676;DHT22;10999;51.332;9.458;2024-02-14T11:43:23;9.10;89.10
21676;DHT22;10999;51.332;9.458;2024-02-14T11:45:50;9.10;89.60
21676;DHT22;10999;51.332;9.458;2024-02-14T11:48:19;9.20;89.70
21676;DHT22;10999;51.332;9.458;2024-02-14T11:50:47;9.20;89.10
21676;DHT22;10999;51.332;9.458;2024-02-14T11:53:15;9.30;88.90
21676;DHT22;10999;51.332;9.458;2024-02-14T11:55:46;9.30;89.10
21676;DHT22;10999;51.332;9.458;2024-02-14T11:58:17;9.30;88.70
21676;DHT22;10999;51.332;9.458;2024-02-14T12:00:45;9.30;88.60
21676;DHT22;10999;51.332;9.458;2024-02-14T12:03:20;9.30;88.30
21676;DHT22;10999;51.332;9.458;2024-02-14T12:05:49;9.30;88.60
21676;DHT22;10999;51.332;9.458;2024-02-14T12:08:18;9.20;88.60
21676;DHT22;10999;51.332;9.458;2024-02-14T12:10:45;9.30;89.30
21676;DHT22;10999;51.332;9.458;2024-02-14T12:13:22;9.20;89.20
21676;DHT22;10999;51.332;9.458;2024-02-14T12:15:50;9.20;89.50
21676;DHT22;10999;51.332;9.458;2024-02-14T12:18:19;9.30;89.20
21676;DHT22;10999;51.332;9.458;2024-02-14T12:20:47;9.30;89.10
21676;DHT22;10999;51.332;9.458;2024-02-14T12:23:22;9.40;89.50
21676;DHT22;10999;51.332;9.458;2024-02-14T12:25:50;9.30;89.30
21676;DHT22;10999;51.332;9.458;2024-02-14T12:28:18;9.30;89.40
21676;DHT22;10999;51.332;9.458;2024-02-14T12:30:49;9.40;89.60
21676;DHT22;10999;51.332;9.458;2024-02-14T12:33:18;9.40;89.60
21676;DHT22;10999;51.332;9.458;2024-02-14T12:35:48;9.40;89.70
21676;DHT22;10999;51.332;9.458;2024-02-14T12:38:16;9.40;90.20
21676;DHT22;10999;51.332;9.458;2024-02-14T12:40:43;9.50;89.50
21676;DHT22;10999;51.332;9.458;2024-02-14T12:43:11;9.50;89.40
21676;DHT22;10999;51.332;9.458;2024-02-14T12:45:38;9.50;89.50
21676;DHT22;10999;51.332;9.458;2024-02-14T12:48:09;9.50;89.40
21676;DHT22;10999;51.332;9.458;2024-02-14T12:50:37;9.50;89.50
21676;DHT22;10999;51.332;9.458;2024-02-14T12:53:06;9.60;89.50
21676;DHT22;10999;51.332;9.458;2024-02-14T12:55:33;9.60;89.30
21676;DHT22;10999;51.332;9.458;2024-02-14T12:58:00;9.70;89.20
21676;DHT22;10999;51.332;9.458;2024-02-14T13:00:27;9.70;88.90
21676;DHT22;10999;51.332;9.458;2024-02-14T13:02:56;9.80;89.60
21676;DHT22;10999;51.332;9.458;2024-02-14T13:05:22;9.90;88.90
21676;DHT22;10999;51.332;9.458;2024-02-14T13:07:49;10.00;88.80
21676;DHT22;10999;51.332;9.458;2024-02-14T13:10:17;10.10;88.50
21676;DHT22;10999;51.332;9.458;2024-02-14T13:12:44;10.20;87.60
21676;DHT22;10999;51.332;9.458;2024-02-14T13:15:12;10.20;87.20
21676;DHT22;10999;51.332;9.458;2024-02-14T13:17:38;10.30;86.90
21676;DHT22;10999;51.332;9.458;2024-02-14T13:20:06;10.40;86.90
21676;DHT22;10999;51.332;9.458;2024-02-14T13:22:33;10.40;86.80
21676;DHT22;10999;51.332;9.458;2024-02-14T13:24:59;10.40;85.70
21676;DHT22;10999;51.332;9.458;2024-02-14T13:27:31;10.50;85.70
21676;DHT22;10999;51.332;9.458;2024-02-14T13:29:58;10.60;85.50
21676;DHT22;10999;51.332;9.458;2024-02-14T13:32:25;10.50;83.80
21676;DHT22;10999;51.332;9.458;2024-02-14T13:34:52;10.50;84.40
21676;DHT22;10999;51.332;9.458;2024-02-14T13:37:19;10.50;84.60
21676;DHT22;10999;51.332;9.458;2024-02-14T13:39:46;10.50;84.60
21676;DHT22;10999;51.332;9.458;2024-02-14T13:42:13;10.50;85.20
21676;DHT22;10999;51.332;9.458;2024-02-14T13:44:39;10.50;85.40
21676;DHT22;10999;51.332;9.458;2024-02-14T13:47:06;10.50;85.90
21676;DHT22;10999;51.332;9.458;2024-02-14T13:49:33;10.60;87.10
21676;DHT22;10999;51.332;9.458;2024-02-14T13:52:00;10.70;87.80
21676;DHT22;10999;51.332;9.458;2024-02-14T13:54:27;10.80;87.60
21676;DHT22;10999;51.332;9.458;2024-02-14T13:56:54;10.90;88.00
21676;DHT22;10999;51.332;9.458;2024-02-14T13:59:21;10.90;86.50
21676;DHT22;10999;51.332;9.458;2024-02-14T14:01:48;11.00;87.90
21676;DHT22;10999;51.332;9.458;2024-02-14T14:04:15;11.10;89.10
21676;DHT22;10999;51.332;9.458;2024-02-14T14:06:42;11.10;87.90
21676;DHT22;10999;51.332;9.458;2024-02-14T14:09:09;11.10;88.40
21676;DHT22;10999;51.332;9.458;2024-02-14T14:11:37;11.20;89.20
21676;DHT22;10999;51.332;9.458;2024-02-14T14:14:05;11.20;88.40
21676;DHT22;10999;51.332;9.458;2024-02-14T14:16:32;11.10;86.60
21676;DHT22;10999;51.332;9.458;2024-02-14T14:18:59;11.10;86.00
21676;DHT22;10999;51.332;9.458;2024-02-14T14:21:30;11.10;85.70
21676;DHT22;10999;51.332;9.458;2024-02-14T14:23:57;11.10;85.90
21676;DHT22;10999;51.332;9.458;2024-02-14T14:26:24;11.00;85.70
21676;DHT22;10999;51.332;9.458;2024-02-14T14:28:51;10.90;85.80
21676;DHT22;10999;51.332;9.458;2024-02-14T14:31:21;10.90;86.80
21676;DHT22;10999;51.332;9.458;2024-02-14T14:33:47;10.80;87.00
21676;DHT22;10999;51.332;9.458;2024-02-14T14:36:15;10.70;87.60
21676;DHT22;10999;51.332;9.458;2024-02-14T14:38:42;10.70;87.70
21676;DHT22;10999;51.332;9.458;2024-02-14T14:41:09;10.70;87.70
21676;DHT22;10999;51.332;9.458;2024-02-14T14:43:37;10.70;88.20
21676;DHT22;10999;51.332;9.458;2024-02-14T14:46:04;10.70;88.50
21676;DHT22;10999;51.332;9.458;2024-02-14T14:48:30;10.70;88.20
21676;DHT22;10999;51.332;9.458;2024-02-14T14:50:57;10.60;88.00
21676;DHT22;10999;51.332;9.458;2024-02-14T14:53:24;10.60;88.60
21676;DHT22;10999;51.332;9.458;2024-02-14T14:55:53;10.60;88.50
21676;DHT22;10999;51.332;9.458;2024-02-14T14:58:24;10.60;88.60
21676;DHT22;10999;51.332;9.458;2024-02-14T15:00:55;10.70;89.10
21676;DHT22;10999;51.332;9.458;2024-02-14T15:03:22;10.70;89.40
21676;DHT22;10999;51.332;9.458;2024-02-14T15:05:49;10.80;89.60
21676;DHT22;10999;51.332;9.458;2024-02-14T15:08:17;10.70;89.10
21676;DHT22;10999;51.332;9.458;2024-02-14T15:10:53;10.70;88.90
21676;DHT22;10999;51.332;9.458;2024-02-14T15:13:19;10.70;88.80
21676;DHT22;10999;51.332;9.458;2024-02-14T15:15:46;10.70;88.90
21676;DHT22;10999;51.332;9.458;2024-02-14T15:18:13;10.80;89.30
21676;DHT22;10999;51.332;9.458;2024-02-14T15:20:40;10.80;88.40
21676;DHT22;10999;51.332;9.458;2024-02-14T15:23:08;10.80;89.00
21676;DHT22;10999;51.332;9.458;2024-02-14T15:25:35;10.80;88.60
21676;DHT22;10999;51.332;9.458;2024-02-14T15:28:09;10.80;88.70
21676;DHT22;10999;51.332;9.458;2024-02-14T15:30:52;10.80;88.70
21676;DHT22;10999;51.332;9.458;2024-02-14T15:33:38;10.80;88.80
21676;DHT22;10999;51.332;9.458;2024-02-14T15:36:05;10.70;88.80
21676;DHT22;10999;51.332;9.458;2024-02-14T15:38:32;10.70;88.90
21676;DHT22;10999;51.332;9.458;2024-02-14T15:40:59;10.70;89.30
21676;DHT22;10999;51.332;9.458;2024-02-14T15:43:28;10.70;89.60
21676;DHT22;10999;51.332;9.458;2024-02-14T15:45:55;10.60;90.70
21676;DHT22;10999;51.332;9.458;2024-02-14T15:48:24;10.50;91.80
21676;DHT22;10999;51.332;9.458;2024-02-14T15:50:53;10.50;92.20
21676;DHT22;10999;51.332;9.458;2024-02-14T15:53:20;10.40;92.70
21676;DHT22;10999;51.332;9.458;2024-02-14T15:55:47;10.40;93.50
21676;DHT22;10999;51.332;9.458;2024-02-14T15:58:13;10.40;93.70
21676;DHT22;10999;51.332;9.458;2024-02-14T16:00:41;10.30;93.70
21676;DHT22;10999;51.332;9.458;2024-02-14T16:03:09;10.30;93.80
21676;DHT22;10999;51.332;9.458;2024-02-14T16:05:40;10.30;93.80
21676;DHT22;10999;51.332;9.458;2024-02-14T16:08:06;10.40;93.90
21676;DHT22;10999;51.332;9.458;2024-02-14T16:10:33;10.30;94.10
21676;DHT22;10999;51.332;9.458;2024-02-14T16:13:01;10.30;94.30
21676;DHT22;10999;51.332;9.458;2024-02-14T16:15:27;10.30;94.70